sensor_id;sensor_type;location;lat;lon;timestamp;pressure;altitude;pressure_sealevel;temperature;humidity
32761;BME280;19126;47.472;7.850;2024-03-23T00:54:41;74113.97;;;-146.25;75.42
32761;BME280;19126;47.472;7.850;2024-03-23T00:57:07;74111.97;;;-146.25;74.98
32761;BME280;19126;47.472;7.850;2024-03-23T00:59:34;74107.97;;;-146.25;74.54
32761;BME280;19126;47.472;7.850;2024-03-23T01:02:00;74107.97;;;-146.25;74.07
32761;BME280;19126;47.472;7.850;2024-03-23T01:04:27;74081.91;;;-146.25;73.57
32761;BME280;19126;47.472;7.850;2024-03-23T01:06:53;74081.91;;;-146.25;73.12
32761;BME280;19126;47.472;7.850;2024-03-23T01:09:21;74075.91;;;-146.25;72.81
32761;BME280;19126;47.472;7.850;2024-03-23T01:11:50;74053.84;;;-146.25;72.00
32761;BME280;19126;47.472;7.850;2024-03-23T01:14:17;74047.84;;;-146.25;71.84
32761;BME280;19126;47.472;7.850;2024-03-23T01:16:43;74045.81;;;-146.25;71.70
32761;BME280;19126;47.472;7.850;2024-03-23T01:19:10;74039.81;;;-146.25;71.60
32761;BME280;19126;47.472;7.850;2024-03-23T01:21:36;74025.78;;;-146.25;71.30
32761;BME280;19126;47.472;7.850;2024-03-23T01:24:03;74025.78;;;-146.25;70.79
32761;BME280;19126;47.472;7.850;2024-03-23T01:26:29;74015.75;;;-146.25;70.80
32761;BME280;19126;47.472;7.850;2024-03-23T01:28:58;74013.75;;;-146.25;70.58
32761;BME280;19126;47.472;7.850;2024-03-23T01:31:24;74005.75;;;-146.25;70.50
32761;BME280;19126;47.472;7.850;2024-03-23T01:33:51;73993.72;;;-146.25;70.99
32761;BME280;19126;47.472;7.850;2024-03-23T01:36:18;73993.72;;;-146.25;70.83
32761;BME280;19126;47.472;7.850;2024-03-23T01:38:45;73989.69;;;-146.25;71.72
32761;BME280;19126;47.472;7.850;2024-03-23T01:41:11;73977.69;;;-146.25;71.63
32761;BME280;19126;47.472;7.850;2024-03-23T01:43:38;73967.66;;;-146.25;71.27
32761;BME280;19126;47.472;7.850;2024-03-23T01:46:07;73955.63;;;-146.25;70.26
32761;BME280;19126;47.472;7.850;2024-03-23T01:48:34;73945.59;;;-146.25;69.57
32761;BME280;19126;47.472;7.850;2024-03-23T01:51:00;73937.59;;;-146.25;69.63
32761;BME280;19126;47.472;7.850;2024-03-23T01:53:27;73923.56;;;-146.25;69.40
32761;BME280;19126;47.472;7.850;2024-03-23T01:55:54;73915.53;;;-146.25;69.39
32761;BME280;19126;47.472;7.850;2024-03-23T01:58:22;73905.50;;;-146.25;70.23
32761;BME280;19126;47.472;7.850;2024-03-23T02:00:49;73885.47;;;-146.25;70.92
32761;BME280;19126;47.472;7.850;2024-03-23T02:03:24;73891.50;;;-146.25;72.48
32761;BME280;19126;47.472;7.850;2024-03-23T02:05:51;73895.50;;;-146.25;72.87
32761;BME280;19126;47.472;7.850;2024-03-23T02:08:21;73891.50;;;-146.25;73.03
32761;BME280;19126;47.472;7.850;2024-03-23T02:10:48;73885.47;;;-146.25;73.86
32761;BME280;19126;47.472;7.850;2024-03-23T02:13:15;73877.47;;;-146.25;73.89
32761;BME280;19126;47.472;7.850;2024-03-23T02:15:43;73867.44;;;-146.25;74.65
32761;BME280;19126;47.472;7.850;2024-03-23T02:18:11;73851.41;;;-146.25;75.35
32761;BME280;19126;47.472;7.850;2024-03-23T02:20:39;73821.34;;;-146.25;76.02
32761;BME280;19126;47.472;7.850;2024-03-23T02:23:13;73767.22;;;-146.25;77.81
32761;BME280;19126;47.472;7.850;2024-03-23T02:25:41;73759.19;;;-146.25;81.11
32761;BME280;19126;47.472;7.850;2024-03-23T02:28:08;73755.19;;;-146.25;84.54
32761;BME280;19126;47.472;7.850;2024-03-23T02:30:35;73773.22;;;-146.25;86.00
32761;BME280;19126;47.472;7.850;2024-03-23T02:33:01;73773.22;;;-146.25;85.83
32761;BME280;19126;47.472;7.850;2024-03-23T02:35:28;73773.22;;;-146.25;86.84
32761;BME280;19126;47.472;7.850;2024-03-23T02:37:55;73769.22;;;-146.25;85.96
32761;BME280;19126;47.472;7.850;2024-03-23T02:40:24;73771.22;;;-146.25;86.40
32761;BME280;19126;47.472;7.850;2024-03-23T02:42:50;73777.25;;;-146.25;87.05
32761;BME280;19126;47.472;7.850;2024-03-23T02:45:18;73791.28;;;-146.25;86.43
32761;BME280;19126;47.472;7.850;2024-03-23T02:47:44;73777.25;;;-146.25;86.79
32761;BME280;19126;47.472;7.850;2024-03-23T02:50:11;73763.22;;;-146.25;87.12
32761;BME280;19126;47.472;7.850;2024-03-23T02:52:38;73757.19;;;-146.25;87.43
32761;BME280;19126;47.472;7.850;2024-03-23T02:55:05;73749.19;;;-146.25;87.10
32761;BME280;19126;47.472;7.850;2024-03-23T02:57:33;73743.16;;;-146.25;86.75
32761;BME280;19126;47.472;7.850;2024-03-23T03:00:00;73735.16;;;-146.25;86.88
32761;BME280;19126;47.472;7.850;2024-03-23T03:02:26;73711.09;;;-146.25;87.14
32761;BME280;19126;47.472;7.850;2024-03-23T03:04:53;73711.09;;;-146.25;87.28
32761;BME280;19126;47.472;7.850;2024-03-23T03:07:19;73711.09;;;-146.25;86.94
32761;BME280;19126;47.472;7.850;2024-03-23T03:09:47;73721.13;;;-146.25;86.80
32761;BME280;19126;47.472;7.850;2024-03-23T03:12:13;73727.13;;;-146.25;86.48
32761;BME280;19126;47.472;7.850;2024-03-23T03:14:41;73731.13;;;-146.25;86.91
32761;BME280;19126;47.472;7.850;2024-03-23T03:17:09;73737.16;;;-146.25;86.41
32761;BME280;19126;47.472;7.850;2024-03-23T03:19:36;73735.16;;;-146.25;86.66
32761;BME280;19126;47.472;7.850;2024-03-23T03:22:03;73739.16;;;-146.25;87.03
32761;BME280;19126;47.472;7.850;2024-03-23T03:24:31;73741.16;;;-146.25;87.28
32761;BME280;19126;47.472;7.850;2024-03-23T03:26:57;73745.16;;;-146.25;87.28
32761;BME280;19126;47.472;7.850;2024-03-23T03:29:24;73747.16;;;-146.25;87.31
32761;BME280;19126;47.472;7.850;2024-03-23T03:31:52;73727.13;;;-146.25;87.03
32761;BME280;19126;47.472;7.850;2024-03-23T03:34:19;73717.09;;;-146.25;86.32
32761;BME280;19126;47.472;7.850;2024-03-23T03:36:45;73703.06;;;-146.25;86.41
32761;BME280;19126;47.472;7.850;2024-03-23T03:39:12;73697.06;;;-146.25;86.44
32761;BME280;19126;47.472;7.850;2024-03-23T03:41:38;73685.03;;;-146.25;86.83
32761;BME280;19126;47.472;7.850;2024-03-23T03:44:05;73679.03;;;-146.25;87.16
32761;BME280;19126;47.472;7.850;2024-03-23T03:46:31;73677.03;;;-146.25;86.34
32761;BME280;19126;47.472;7.850;2024-03-23T03:49:00;73665.00;;;-146.25;87.11
32761;BME280;19126;47.472;7.850;2024-03-23T03:51:26;73661.00;;;-146.25;87.19
32761;BME280;19126;47.472;7.850;2024-03-23T03:53:53;73654.97;;;-146.25;86.24
32761;BME280;19126;47.472;7.850;2024-03-23T03:56:20;73648.97;;;-146.25;86.15
32761;BME280;19126;47.472;7.850;2024-03-23T03:58:48;73644.94;;;-146.25;86.83
32761;BME280;19126;47.472;7.850;2024-03-23T04:01:14;73636.94;;;-146.25;86.40
32761;BME280;19126;47.472;7.850;2024-03-23T04:03:42;73628.91;;;-146.25;86.43
32761;BME280;19126;47.472;7.850;2024-03-23T04:06:11;73616.91;;;-146.25;86.26
32761;BME280;19126;47.472;7.850;2024-03-23T04:08:38;73620.91;;;-146.25;86.32
32761;BME280;19126;47.472;7.850;2024-03-23T04:11:04;73612.88;;;-146.25;86.07
32761;BME280;19126;47.472;7.850;2024-03-23T04:13:31;73600.84;;;-146.25;86.51
32761;BME280;19126;47.472;7.850;2024-03-23T04:15:57;73598.84;;;-146.25;85.97
32761;BME280;19126;47.472;7.850;2024-03-23T04:18:24;73590.84;;;-146.25;86.16
32761;BME280;19126;47.472;7.850;2024-03-23T04:20:51;73570.78;;;-146.25;86.25
32761;BME280;19126;47.472;7.850;2024-03-23T04:23:19;73564.78;;;-146.25;87.08
32761;BME280;19126;47.472;7.850;2024-03-23T04:25:47;73562.78;;;-146.25;86.20
32761;BME280;19126;47.472;7.850;2024-03-23T04:28:14;73558.78;;;-146.25;86.99
32761;BME280;19126;47.472;7.850;2024-03-23T04:30:40;73576.81;;;-146.25;86.67
32761;BME280;19126;47.472;7.850;2024-03-23T04:33:07;73594.84;;;-146.25;86.61
32761;BME280;19126;47.472;7.850;2024-03-23T04:35:34;73562.78;;;-146.25;86.08
32761;BME280;19126;47.472;7.850;2024-03-23T04:38:01;73512.69;;;-146.25;86.39
32761;BME280;19126;47.472;7.850;2024-03-23T04:40:30;73516.69;;;-146.25;86.24
32761;BME280;19126;47.472;7.850;2024-03-23T04:42:57;73516.69;;;-146.25;86.39
32761;BME280;19126;47.472;7.850;2024-03-23T04:45:24;73506.66;;;-146.25;86.46
32761;BME280;19126;47.472;7.850;2024-03-23T04:47:52;73502.66;;;-146.25;85.81
32761;BME280;19126;47.472;7.850;2024-03-23T04:50:19;73514.69;;;-146.25;85.96
32761;BME280;19126;47.472;7.850;2024-03-23T04:52:46;73512.69;;;-146.25;84.50
32761;BME280;19126;47.472;7.850;2024-03-23T04:55:13;73524.69;;;-146.25;83.73
32761;BME280;19126;47.472;7.850;2024-03-23T04:57:42;73544.75;;;-146.25;81.14
32761;BME280;19126;47.472;7.850;2024-03-23T05:00:11;73562.78;;;-146.25;78.90
32761;BME280;19126;47.472;7.850;2024-03-23T05:02:44;73556.78;;;-146.25;76.98
32761;BME280;19126;47.472;7.850;2024-03-23T05:05:12;73576.81;;;-146.25;75.13
32761;BME280;19126;47.472;7.850;2024-03-23T05:07:38;73582.81;;;-146.25;73.60
32761;BME280;19126;47.472;7.850;2024-03-23T05:10:09;73566.78;;;-146.25;72.78
32761;BME280;19126;47.472;7.850;2024-03-23T05:12:36;73580.81;;;-146.25;71.44
32761;BME280;19126;47.472;7.850;2024-03-23T05:15:06;73576.81;;;-146.25;69.84
32761;BME280;19126;47.472;7.850;2024-03-23T05:17:33;73586.84;;;-146.25;67.94
32761;BME280;19126;47.472;7.850;2024-03-23T05:20:02;73586.84;;;-146.25;67.33
32761;BME280;19126;47.472;7.850;2024-03-23T05:22:29;73584.81;;;-146.25;66.03
32761;BME280;19126;47.472;7.850;2024-03-23T05:24:56;73580.81;;;-146.25;65.61
32761;BME280;19126;47.472;7.850;2024-03-23T05:27:23;73596.84;;;-146.25;65.04
32761;BME280;19126;47.472;7.850;2024-03-23T05:29:50;73596.84;;;-146.25;66.03
32761;BME280;19126;47.472;7.850;2024-03-23T05:32:17;73598.84;;;-146.25;66.86
32761;BME280;19126;47.472;7.850;2024-03-23T05:34:44;73628.91;;;-146.25;68.64
32761;BME280;19126;47.472;7.850;2024-03-23T05:37:10;73612.88;;;-146.25;71.39
32761;BME280;19126;47.472;7.850;2024-03-23T05:39:38;73642.94;;;-146.25;73.16
32761;BME280;19126;47.472;7.850;2024-03-23T05:42:04;73677.03;;;-146.25;74.08
32761;BME280;19126;47.472;7.850;2024-03-23T05:44:31;73685.03;;;-146.25;76.74
32761;BME280;19126;47.472;7.850;2024-03-23T05:46:57;73691.06;;;-146.25;77.07
32761;BME280;19126;47.472;7.850;2024-03-23T05:49:26;73695.06;;;-146.25;77.55
32761;BME280;19126;47.472;7.850;2024-03-23T05:51:52;73699.06;;;-146.25;77.74
32761;BME280;19126;47.472;7.850;2024-03-23T05:54:21;73699.06;;;-146.25;78.73
32761;BME280;19126;47.472;7.850;2024-03-23T05:56:47;73701.06;;;-146.25;78.03
32761;BME280;19126;47.472;7.850;2024-03-23T05:59:14;73715.09;;;-146.25;78.06
32761;BME280;19126;47.472;7.850;2024-03-23T06:01:40;73717.09;;;-146.25;76.71
32761;BME280;19126;47.472;7.850;2024-03-23T06:04:07;73711.09;;;-146.25;76.68
32761;BME280;19126;47.472;7.850;2024-03-23T06:06:35;73727.13;;;-146.25;75.82
32761;BME280;19126;47.472;7.850;2024-03-23T06:09:02;73725.13;;;-146.25;75.21
32761;BME280;19126;47.472;7.850;2024-03-23T06:11:28;73735.16;;;-146.25;75.08
32761;BME280;19126;47.472;7.850;2024-03-23T06:13:56;73721.13;;;-146.25;76.39
32761;BME280;19126;47.472;7.850;2024-03-23T06:16:22;73737.16;;;-146.25;75.15
32761;BME280;19126;47.472;7.850;2024-03-23T06:18:50;73749.19;;;-146.25;75.32
32761;BME280;19126;47.472;7.850;2024-03-23T06:21:17;73745.16;;;-146.25;75.88
32761;BME280;19126;47.472;7.850;2024-03-23T06:23:45;73757.19;;;-146.25;76.82
32761;BME280;19126;47.472;7.850;2024-03-23T06:26:17;73759.19;;;-146.25;79.82
32761;BME280;19126;47.472;7.850;2024-03-23T06:28:44;73773.22;;;-146.25;83.43
32761;BME280;19126;47.472;7.850;2024-03-23T06:31:10;73771.22;;;-146.25;84.17
32761;BME280;19126;47.472;7.850;2024-03-23T06:33:38;73781.25;;;-146.25;83.94
32761;BME280;19126;47.472;7.850;2024-03-23T06:36:05;73767.22;;;-146.25;84.31
32761;BME280;19126;47.472;7.850;2024-03-23T06:38:32;73779.25;;;-146.25;84.48
32761;BME280;19126;47.472;7.850;2024-03-23T06:41:03;73789.25;;;-146.25;84.93
32761;BME280;19126;47.472;7.850;2024-03-23T06:43:30;73789.25;;;-146.25;84.15
32761;BME280;19126;47.472;7.850;2024-03-23T06:45:56;73787.25;;;-146.25;83.97
32761;BME280;19126;47.472;7.850;2024-03-23T06:48:24;73803.28;;;-146.25;84.04
32761;BME280;19126;47.472;7.850;2024-03-23T06:50:55;73793.28;;;-146.25;83.85
32761;BME280;19126;47.472;7.850;2024-03-23T06:53:22;73805.28;;;-146.25;82.83
32761;BME280;19126;47.472;7.850;2024-03-23T06:55:51;73817.31;;;-146.25;81.15
32761;BME280;19126;47.472;7.850;2024-03-23T06:58:21;73827.34;;;-146.25;80.16
32761;BME280;19126;47.472;7.850;2024-03-23T07:00:48;73841.38;;;-146.25;79.37
32761;BME280;19126;47.472;7.850;2024-03-23T07:03:16;73871.44;;;-146.25;77.67
32761;BME280;19126;47.472;7.850;2024-03-23T07:05:42;73875.44;;;-146.25;77.60
32761;BME280;19126;47.472;7.850;2024-03-23T07:08:09;73907.53;;;-146.25;76.88
32761;BME280;19126;47.472;7.850;2024-03-23T07:10:38;73929.56;;;-146.25;78.29
32761;BME280;19126;47.472;7.850;2024-03-23T07:13:06;73947.59;;;-146.25;80.54
32761;BME280;19126;47.472;7.850;2024-03-23T07:15:33;73977.69;;;-146.25;83.50
32761;BME280;19126;47.472;7.850;2024-03-23T07:18:01;73983.69;;;-146.25;85.39
32761;BME280;19126;47.472;7.850;2024-03-23T07:20:27;74003.72;;;-146.25;86.25
32761;BME280;19126;47.472;7.850;2024-03-23T07:22:56;74021.78;;;-146.25;86.24
32761;BME280;19126;47.472;7.850;2024-03-23T07:25:22;74053.84;;;-146.25;86.76
32761;BME280;19126;47.472;7.850;2024-03-23T07:27:52;74061.88;;;-146.25;86.68
32761;BME280;19126;47.472;7.850;2024-03-23T07:30:19;74075.91;;;-146.25;87.56
32761;BME280;19126;47.472;7.850;2024-03-23T07:32:47;74126.00;;;-146.25;87.22
32761;BME280;19126;47.472;7.850;2024-03-23T07:35:13;74136.03;;;-146.25;87.34
32761;BME280;19126;47.472;7.850;2024-03-23T07:37:42;74164.09;;;-146.25;87.07
32761;BME280;19126;47.472;7.850;2024-03-23T07:40:09;74180.13;;;-146.25;86.53
32761;BME280;19126;47.472;7.850;2024-03-23T07:42:37;74202.19;;;-146.25;85.83
32761;BME280;19126;47.472;7.850;2024-03-23T07:45:04;74208.19;;;-146.25;85.27
32761;BME280;19126;47.472;7.850;2024-03-23T07:47:32;74222.22;;;-146.25;84.93
32761;BME280;19126;47.472;7.850;2024-03-23T07:49:59;74236.25;;;-146.25;84.66
32761;BME280;19126;47.472;7.850;2024-03-23T07:52:28;74242.28;;;-146.25;84.97
32761;BME280;19126;47.472;7.850;2024-03-23T07:54:55;74250.28;;;-146.25;86.01
32761;BME280;19126;47.472;7.850;2024-03-23T07:57:22;74242.28;;;-146.25;86.34
32761;BME280;19126;47.472;7.850;2024-03-23T07:59:48;74264.31;;;-146.25;86.68
32761;BME280;19126;47.472;7.850;2024-03-23T08:02:15;74256.31;;;-146.25;86.32
32761;BME280;19126;47.472;7.850;2024-03-23T08:04:44;74276.34;;;-146.25;87.35
32761;BME280;19126;47.472;7.850;2024-03-23T08:07:13;74286.38;;;-146.25;87.41
32761;BME280;19126;47.472;7.850;2024-03-23T08:09:39;74294.38;;;-146.25;87.28
32761;BME280;19126;47.472;7.850;2024-03-23T08:12:07;74300.41;;;-146.25;87.07
32761;BME280;19126;47.472;7.850;2024-03-23T08:14:33;74316.44;;;-146.25;86.55
32761;BME280;19126;47.472;7.850;2024-03-23T08:17:00;74300.41;;;-146.25;86.52
32761;BME280;19126;47.472;7.850;2024-03-23T08:19:26;74310.44;;;-146.25;85.99
32761;BME280;19126;47.472;7.850;2024-03-23T08:21:53;74320.44;;;-146.25;84.81
32761;BME280;19126;47.472;7.850;2024-03-23T08:24:21;74324.47;;;-146.25;83.22
32761;BME280;19126;47.472;7.850;2024-03-23T08:26:48;74324.47;;;-146.25;82.06
32761;BME280;19126;47.472;7.850;2024-03-23T08:29:15;74316.44;;;-146.25;81.45
32761;BME280;19126;47.472;7.850;2024-03-23T08:31:42;74330.47;;;-146.25;83.56
32761;BME280;19126;47.472;7.850;2024-03-23T08:34:08;74320.44;;;-146.25;83.76
32761;BME280;19126;47.472;7.850;2024-03-23T08:36:35;74302.41;;;-146.25;84.19
32761;BME280;19126;47.472;7.850;2024-03-23T08:39:01;74288.38;;;-146.25;84.52
32761;BME280;19126;47.472;7.850;2024-03-23T08:41:30;74280.34;;;-146.25;84.41
32761;BME280;19126;47.472;7.850;2024-03-23T08:43:57;74258.31;;;-146.25;84.46
32761;BME280;19126;47.472;7.850;2024-03-23T12:35:05;73923.56;;;-146.25;56.19
32761;BME280;19126;47.472;7.850;2024-03-23T12:37:32;73939.59;;;-146.25;55.38
32761;BME280;19126;47.472;7.850;2024-03-23T12:39:59;73957.63;;;-146.25;55.74
32761;BME280;19126;47.472;7.850;2024-03-23T12:47:04;74001.72;;;-146.25;62.84
32761;BME280;19126;47.472;7.850;2024-03-23T12:49:31;74023.78;;;-146.25;60.69
32761;BME280;19126;47.472;7.850;2024-03-23T12:51:58;74055.84;;;-146.25;63.50
32761;BME280;19126;47.472;7.850;2024-03-23T12:54:25;74047.84;;;-146.25;63.69
32761;BME280;19126;47.472;7.850;2024-03-23T12:56:51;74025.78;;;-146.25;61.93
32761;BME280;19126;47.472;7.850;2024-03-23T12:59:19;74007.75;;;-146.25;60.88
32761;BME280;19126;47.472;7.850;2024-03-23T13:01:45;73971.66;;;-146.25;62.60
32761;BME280;19126;47.472;7.850;2024-03-23T13:04:14;73951.63;;;-146.25;62.01
32761;BME280;19126;47.472;7.850;2024-03-23T13:06:40;73923.56;;;-146.25;63.67
32761;BME280;19126;47.472;7.850;2024-03-23T13:09:07;73919.53;;;-146.25;58.95
32761;BME280;19126;47.472;7.850;2024-03-23T13:11:34;73895.50;;;-146.25;59.69
32761;BME280;19126;47.472;7.850;2024-03-23T13:14:01;73877.47;;;-146.25;61.45
32761;BME280;19126;47.472;7.850;2024-03-23T13:16:29;73889.47;;;-146.25;57.84
32761;BME280;19126;47.472;7.850;2024-03-23T13:18:57;73881.47;;;-146.25;53.63
32761;BME280;19126;47.472;7.850;2024-03-23T13:21:24;73905.50;;;-146.25;50.54
32761;BME280;19126;47.472;7.850;2024-03-23T13:23:51;73889.47;;;-146.25;50.42
32761;BME280;19126;47.472;7.850;2024-03-23T13:26:17;73871.44;;;-146.25;49.49
32761;BME280;19126;47.472;7.850;2024-03-23T13:28:45;73877.47;;;-146.25;50.39
32761;BME280;19126;47.472;7.850;2024-03-23T13:31:11;73893.50;;;-146.25;49.75
32761;BME280;19126;47.472;7.850;2024-03-23T13:33:38;73915.53;;;-146.25;48.48
32761;BME280;19126;47.472;7.850;2024-03-23T13:36:05;73919.53;;;-146.25;47.38
32761;BME280;19126;47.472;7.850;2024-03-23T13:38:34;73943.59;;;-146.25;47.11
32761;BME280;19126;47.472;7.850;2024-03-23T13:41:01;73959.63;;;-146.25;46.30
32761;BME280;19126;47.472;7.850;2024-03-23T13:43:30;73945.59;;;-146.25;46.11
32761;BME280;19126;47.472;7.850;2024-03-23T13:45:59;73945.59;;;-146.25;46.01
32761;BME280;19126;47.472;7.850;2024-03-23T13:48:27;73941.59;;;-146.25;47.07
32761;BME280;19126;47.472;7.850;2024-03-23T13:50:58;73937.59;;;-146.25;46.84
32761;BME280;19126;47.472;7.850;2024-03-23T16:30:58;74055.84;;;-146.25;49.94
32761;BME280;19126;47.472;7.850;2024-03-23T16:33:26;74053.84;;;-146.25;50.42
32761;BME280;19126;47.472;7.850;2024-03-23T16:35:57;74053.84;;;-146.25;50.59
32761;BME280;19126;47.472;7.850;2024-03-23T16:38:25;74043.81;;;-146.25;51.48
32761;BME280;19126;47.472;7.850;2024-03-23T16:40:56;74041.81;;;-146.25;49.75
32761;BME280;19126;47.472;7.850;2024-03-23T16:43:24;74049.84;;;-146.25;50.97
32761;BME280;19126;47.472;7.850;2024-03-23T16:45:57;74065.88;;;-146.25;50.34
32761;BME280;19126;47.472;7.850;2024-03-23T16:48:26;74067.88;;;-146.25;51.46
32761;BME280;19126;47.472;7.850;2024-03-23T16:50:53;74071.88;;;-146.25;51.95
32761;BME280;19126;47.472;7.850;2024-03-23T16:53:20;74065.88;;;-146.25;51.64
32761;BME280;19126;47.472;7.850;2024-03-23T16:55:46;74085.91;;;-146.25;51.93
32761;BME280;19126;47.472;7.850;2024-03-23T16:58:13;74109.97;;;-146.25;53.18
32761;BME280;19126;47.472;7.850;2024-03-23T17:00:39;74132.03;;;-146.25;54.78
32761;BME280;19126;47.472;7.850;2024-03-23T17:03:08;74146.06;;;-146.25;56.75
32761;BME280;19126;47.472;7.850;2024-03-23T17:05:37;74154.06;;;-146.25;58.70
32761;BME280;19126;47.472;7.850;2024-03-23T17:08:06;74194.16;;;-146.25;59.59
32761;BME280;19126;47.472;7.850;2024-03-23T17:10:32;74212.19;;;-146.25;61.04
32761;BME280;19126;47.472;7.850;2024-03-23T17:12:59;74228.25;;;-146.25;62.37
32761;BME280;19126;47.472;7.850;2024-03-23T17:15:26;74222.22;;;-146.25;63.29
32761;BME280;19126;47.472;7.850;2024-03-23T17:17:53;74242.28;;;-146.25;64.25
32761;BME280;19126;47.472;7.850;2024-03-23T17:20:24;74252.28;;;-146.25;64.53
32761;BME280;19126;47.472;7.850;2024-03-23T17:22:55;74252.28;;;-146.25;64.31
32761;BME280;19126;47.472;7.850;2024-03-23T17:25:21;74250.28;;;-146.25;64.25
32761;BME280;19126;47.472;7.850;2024-03-23T17:27:49;74262.31;;;-146.25;65.22
32761;BME280;19126;47.472;7.850;2024-03-23T17:30:15;74294.38;;;-146.25;65.88
32761;BME280;19126;47.472;7.850;2024-03-23T17:32:43;74288.38;;;-146.25;66.00
32761;BME280;19126;47.472;7.850;2024-03-23T17:35:10;74298.41;;;-146.25;66.54
32761;BME280;19126;47.472;7.850;2024-03-23T17:37:41;74294.38;;;-146.25;66.58
32761;BME280;19126;47.472;7.850;2024-03-23T17:40:09;74314.44;;;-146.25;66.98
32761;BME280;19126;47.472;7.850;2024-03-23T17:42:38;74316.44;;;-146.25;67.72
32761;BME280;19126;47.472;7.850;2024-03-23T17:45:06;74326.47;;;-146.25;66.65
32761;BME280;19126;47.472;7.850;2024-03-23T17:47:37;74326.47;;;-146.25;66.26
32761;BME280;19126;47.472;7.850;2024-03-23T17:50:05;74318.44;;;-146.25;66.91
32761;BME280;19126;47.472;7.850;2024-03-23T17:52:33;74322.44;;;-146.25;66.93
32761;BME280;19126;47.472;7.850;2024-03-23T17:55:01;74322.44;;;-146.25;66.12
32761;BME280;19126;47.472;7.850;2024-03-23T17:57:29;74324.47;;;-146.25;66.22
32761;BME280;19126;47.472;7.850;2024-03-23T17:59:55;74334.47;;;-146.25;65.39
32761;BME280;19126;47.472;7.850;2024-03-23T18:02:22;74336.47;;;-146.25;62.97
32761;BME280;19126;47.472;7.850;2024-03-23T18:04:49;74322.44;;;-146.25;61.92
32761;BME280;19126;47.472;7.850;2024-03-23T18:07:16;74322.44;;;-146.25;61.98
32761;BME280;19126;47.472;7.850;2024-03-23T18:09:42;74324.47;;;-146.25;60.84
32761;BME280;19126;47.472;7.850;2024-03-23T18:12:11;74336.47;;;-146.25;60.30
32761;BME280;19126;47.472;7.850;2024-03-23T18:14:38;74356.53;;;-146.25;59.81
32761;BME280;19126;47.472;7.850;2024-03-23T18:17:05;74358.53;;;-146.25;58.39
32761;BME280;19126;47.472;7.850;2024-03-23T18:19:31;74372.56;;;-146.25;59.22
32761;BME280;19126;47.472;7.850;2024-03-23T18:21:58;74374.56;;;-146.25;60.23
32761;BME280;19126;47.472;7.850;2024-03-23T18:24:24;74390.59;;;-146.25;61.00
32761;BME280;19126;47.472;7.850;2024-03-23T18:26:52;74420.69;;;-146.25;62.65
32761;BME280;19126;47.472;7.850;2024-03-23T18:29:19;74420.69;;;-146.25;63.81
32761;BME280;19126;47.472;7.850;2024-03-23T18:31:47;74434.72;;;-146.25;64.74
32761;BME280;19126;47.472;7.850;2024-03-23T18:34:16;74434.72;;;-146.25;65.00
32761;BME280;19126;47.472;7.850;2024-03-23T18:36:44;74442.72;;;-146.25;65.46
32761;BME280;19126;47.472;7.850;2024-03-23T18:39:10;74464.78;;;-146.25;67.56
32761;BME280;19126;47.472;7.850;2024-03-23T18:41:38;74466.78;;;-146.25;68.06
32761;BME280;19126;47.472;7.850;2024-03-23T18:44:05;74472.81;;;-146.25;68.88
32761;BME280;19126;47.472;7.850;2024-03-23T18:46:33;74492.84;;;-146.25;69.93
32761;BME280;19126;47.472;7.850;2024-03-23T18:48:59;74496.84;;;-146.25;70.99
32761;BME280;19126;47.472;7.850;2024-03-23T18:51:28;74494.84;;;-146.25;71.92
32761;BME280;19126;47.472;7.850;2024-03-23T18:53:55;74506.88;;;-146.25;71.36
32761;BME280;19126;47.472;7.850;2024-03-23T18:56:25;74514.91;;;-146.25;72.67
32761;BME280;19126;47.472;7.850;2024-03-23T18:58:52;74514.91;;;-146.25;70.92
32761;BME280;19126;47.472;7.850;2024-03-23T19:01:19;74532.94;;;-146.25;71.09
32761;BME280;19126;47.472;7.850;2024-03-23T19:03:47;74542.97;;;-146.25;72.40
32761;BME280;19126;47.472;7.850;2024-03-23T19:06:14;74548.97;;;-146.25;72.88
32761;BME280;19126;47.472;7.850;2024-03-23T19:08:41;74538.94;;;-146.25;72.42
32761;BME280;19126;47.472;7.850;2024-03-23T19:11:20;74514.91;;;-146.25;71.59
32761;BME280;19126;47.472;7.850;2024-03-23T19:13:47;74512.91;;;-146.25;70.76
32761;BME280;19126;47.472;7.850;2024-03-23T19:16:14;74516.91;;;-146.25;71.84
32761;BME280;19126;47.472;7.850;2024-03-23T19:18:40;74510.88;;;-146.25;71.92
32761;BME280;19126;47.472;7.850;2024-03-23T19:21:09;74508.88;;;-146.25;72.20
32761;BME280;19126;47.472;7.850;2024-03-23T19:23:35;74500.88;;;-146.25;72.50
32761;BME280;19126;47.472;7.850;2024-03-23T19:26:02;74500.88;;;-146.25;72.05
32761;BME280;19126;47.472;7.850;2024-03-23T19:28:29;74496.84;;;-146.25;71.55
32761;BME280;19126;47.472;7.850;2024-03-23T19:30:56;74486.84;;;-146.25;71.58
32761;BME280;19126;47.472;7.850;2024-03-23T19:33:23;74490.84;;;-146.25;71.19
32761;BME280;19126;47.472;7.850;2024-03-23T19:35:55;74504.88;;;-146.25;71.82
32761;BME280;19126;47.472;7.850;2024-03-23T19:38:23;74498.84;;;-146.25;73.05
32761;BME280;19126;47.472;7.850;2024-03-23T19:40:54;74494.84;;;-146.25;73.28
32761;BME280;19126;47.472;7.850;2024-03-23T19:43:20;74508.88;;;-146.25;76.42
32761;BME280;19126;47.472;7.850;2024-03-23T19:45:47;74540.97;;;-146.25;79.30
32761;BME280;19126;47.472;7.850;2024-03-23T19:48:13;74567.03;;;-146.25;81.13
32761;BME280;19126;47.472;7.850;2024-03-23T19:50:41;74587.06;;;-146.25;82.58
32761;BME280;19126;47.472;7.850;2024-03-23T19:53:07;74609.13;;;-146.25;83.63
32761;BME280;19126;47.472;7.850;2024-03-23T19:55:36;74615.13;;;-146.25;85.10
32761;BME280;19126;47.472;7.850;2024-03-23T19:58:04;74621.16;;;-146.25;85.47
32761;BME280;19126;47.472;7.850;2024-03-23T20:00:31;74629.16;;;-146.25;86.25
32761;BME280;19126;47.472;7.850;2024-03-23T20:02:58;74637.19;;;-146.25;85.89
32761;BME280;19126;47.472;7.850;2024-03-23T20:05:30;74631.19;;;-146.25;85.75